createdAt,value
2024-03-06T00:01:22.679Z,6.43
2024-03-06T00:03:49.181Z,4.53
2024-03-06T00:06:15.658Z,3.90
2024-03-06T00:08:42.193Z,5.50
2024-03-06T00:11:10.265Z,5.73
2024-03-06T00:13:36.871Z,3.20
2024-03-06T00:16:03.562Z,6.28
2024-03-06T00:18:30.064Z,6.43
2024-03-06T00:20:56.564Z,3.23
2024-03-06T00:23:23.117Z,5.67
2024-03-06T00:25:49.903Z,4.10
2024-03-06T00:28:17.801Z,3.33
2024-03-06T00:30:44.581Z,4.90
2024-03-06T00:33:11.313Z,4.40
2024-03-06T00:35:37.846Z,5.22
2024-03-06T00:38:04.799Z,7.73
2024-03-06T00:40:31.393Z,3.80
2024-03-06T00:42:57.945Z,3.50
2024-03-06T00:45:25.839Z,4.60
2024-03-06T00:47:52.334Z,6.00
2024-03-06T00:50:19.043Z,2.90
2024-03-06T00:52:45.975Z,3.90
2024-03-06T00:55:14.544Z,5.80
2024-03-06T00:57:41.475Z,3.75
2024-03-06T01:00:10.688Z,6.10
2024-03-06T01:02:38.662Z,3.13
2024-03-06T01:05:05.809Z,5.38
2024-03-06T01:07:32.420Z,4.00
2024-03-06T01:09:58.921Z,4.03
2024-03-06T01:12:25.681Z,3.92
2024-03-06T01:14:52.410Z,5.43
2024-03-06T01:17:18.978Z,5.78
2024-03-06T01:19:46.862Z,8.03
2024-03-06T01:22:16.127Z,4.05
2024-03-06T01:24:42.684Z,3.92
2024-03-06T01:27:09.502Z,4.37
2024-03-06T01:29:36.077Z,7.45
2024-03-06T01:32:03.061Z,4.97
2024-03-06T01:34:29.557Z,6.45
2024-03-06T01:36:57.485Z,6.13
2024-03-06T01:39:23.991Z,5.18
2024-03-06T01:41:51.907Z,4.32
2024-03-06T01:44:19.489Z,5.50
2024-03-06T01:46:46.681Z,6.40
2024-03-06T01:49:15.448Z,6.72
2024-03-06T01:51:50.902Z,7.22
2024-03-06T01:54:19.129Z,5.47
2024-03-06T01:56:46.858Z,4.68
2024-03-06T01:59:21.553Z,5.90
2024-03-06T02:01:55.884Z,8.90
2024-03-06T02:04:24.011Z,4.18
2024-03-06T02:06:52.370Z,7.60
2024-03-06T02:09:20.209Z,7.75
2024-03-06T02:11:46.914Z,6.47
2024-03-06T02:14:13.540Z,4.68
2024-03-06T02:16:40.094Z,6.40
2024-03-06T02:19:06.651Z,5.33
2024-03-06T02:21:34.729Z,6.67
2024-03-06T02:24:01.478Z,6.75
2024-03-06T02:26:28.013Z,6.75
2024-03-06T02:28:55.664Z,5.37
2024-03-06T02:31:22.882Z,6.15
2024-03-06T02:33:50.535Z,9.38
2024-03-06T02:36:17.407Z,5.15
2024-03-06T02:38:46.066Z,8.77
2024-03-06T02:41:13.050Z,9.20
2024-03-06T02:43:39.620Z,10.88
2024-03-06T02:46:07.994Z,3.37
2024-03-06T02:48:34.491Z,4.93
2024-03-06T02:51:00.988Z,6.40
2024-03-06T02:53:27.470Z,6.67
2024-03-06T02:55:55.339Z,4.13
2024-03-06T02:58:22.125Z,8.40
2024-03-06T03:00:48.626Z,5.22
2024-03-06T03:03:15.142Z,6.10
2024-03-06T03:05:41.652Z,7.22
2024-03-06T03:08:08.282Z,7.33
2024-03-06T03:10:34.820Z,6.90
2024-03-06T03:13:02.797Z,7.97
2024-03-06T03:15:29.300Z,5.50
2024-03-06T03:17:55.889Z,7.03
2024-03-06T03:20:22.558Z,7.33
2024-03-06T03:22:49.308Z,6.70
2024-03-06T03:25:15.963Z,6.45
2024-03-06T03:27:42.642Z,7.43
2024-03-06T03:30:11.577Z,5.55
2024-03-06T03:32:38.502Z,6.25
2024-03-06T03:35:05.994Z,8.43
2024-03-06T03:37:32.615Z,7.20
2024-03-06T03:39:59.401Z,5.67
2024-03-06T03:42:26.034Z,6.22
2024-03-06T03:44:52.740Z,13.68
2024-03-06T03:47:20.693Z,4.30
2024-03-06T03:49:56.926Z,7.00
2024-03-06T03:52:30.442Z,6.88
2024-03-06T03:54:57.008Z,10.77
2024-03-06T03:57:23.585Z,10.60
2024-03-06T03:59:50.085Z,8.47
2024-03-06T04:02:16.686Z,6.83
2024-03-06T04:04:44.650Z,11.23
2024-03-06T04:07:11.286Z,5.50
2024-03-06T04:09:37.770Z,6.93
2024-03-06T04:12:04.814Z,6.85
2024-03-06T04:14:31.386Z,6.95
2024-03-06T04:16:59.373Z,5.07
2024-03-06T04:19:25.933Z,10.40
2024-03-06T04:21:53.836Z,7.63
2024-03-06T04:24:20.366Z,8.85
2024-03-06T04:26:46.870Z,8.97
2024-03-06T04:29:13.447Z,7.13
2024-03-06T04:31:40.135Z,9.93
2024-03-06T04:34:06.619Z,12.65
2024-03-06T04:36:33.112Z,6.43
2024-03-06T04:39:03.333Z,8.27
2024-03-06T04:41:29.833Z,9.45
2024-03-06T04:43:56.299Z,8.35
2024-03-06T04:46:22.758Z,8.35
2024-03-06T04:48:49.239Z,8.43
2024-03-06T04:51:15.814Z,8.20
2024-03-06T04:53:42.307Z,8.48
2024-03-06T04:56:10.188Z,9.60
2024-03-06T04:58:36.792Z,10.65
2024-03-06T05:01:03.577Z,8.40
2024-03-06T05:58:31.099Z,19.05
2024-03-06T06:00:59.133Z,13.40
2024-03-06T06:03:26.903Z,12.07
2024-03-06T06:05:53.530Z,10.93
2024-03-06T06:08:20.178Z,10.45
2024-03-06T06:10:48.962Z,15.13
2024-03-06T06:13:15.476Z,18.63
2024-03-06T06:15:50.140Z,11.18
2024-03-06T06:18:17.972Z,12.20
2024-03-06T06:20:50.443Z,11.10
2024-03-06T06:23:16.995Z,9.48
2024-03-06T06:25:43.579Z,13.37
2024-03-06T06:28:10.074Z,11.90
2024-03-06T06:30:36.681Z,11.65
2024-03-06T06:33:03.398Z,12.88
2024-03-06T06:35:31.336Z,17.00
2024-03-06T06:37:57.969Z,14.77
2024-03-06T06:40:26.199Z,9.97
2024-03-06T06:42:54.386Z,15.13
2024-03-06T06:45:21.895Z,11.93
2024-03-06T06:50:27.734Z,15.18
2024-03-06T06:52:57.123Z,9.57
2024-03-06T07:06:13.095Z,8.75
2024-03-06T07:08:43.556Z,13.10
2024-03-06T07:11:10.172Z,8.68
2024-03-06T07:13:39.261Z,13.70
2024-03-06T07:38:31.042Z,10.88
2024-03-06T07:40:59.645Z,9.80
2024-03-06T07:43:34.348Z,13.10
2024-03-06T07:46:15.355Z,12.95
2024-03-06T07:48:50.113Z,13.40
2024-03-06T07:51:18.657Z,13.85
2024-03-06T07:53:45.385Z,12.60
2024-03-06T07:56:16.339Z,11.82
2024-03-06T07:59:07.385Z,9.63
2024-03-06T08:11:12.165Z,11.30
2024-03-06T08:13:46.569Z,11.18
2024-03-06T08:16:21.186Z,6.53
2024-03-06T08:18:53.719Z,10.60
2024-03-06T08:31:57.206Z,12.25
2024-03-06T08:34:24.773Z,8.02
2024-03-06T08:36:52.633Z,7.75
2024-03-06T08:39:19.267Z,12.77
2024-03-06T08:41:46.047Z,6.73
2024-03-06T08:44:23.026Z,7.63
2024-03-06T08:46:50.884Z,9.02
2024-03-06T09:00:42.479Z,8.38
2024-03-06T09:10:19.206Z,8.35
2024-03-06T09:12:46.068Z,6.90
2024-03-06T09:15:15.940Z,10.23
2024-03-06T09:17:45.557Z,8.07
2024-03-06T09:20:39.237Z,8.70
2024-03-06T09:23:13.235Z,9.20
2024-03-06T09:26:29.233Z,10.48
2024-03-06T09:29:47.339Z,9.55
2024-03-06T09:32:30.231Z,11.25
2024-03-06T09:34:59.548Z,13.10
2024-03-06T09:37:29.590Z,13.80
2024-03-06T09:39:56.373Z,16.25
2024-03-06T09:42:53.960Z,12.63
2024-03-06T09:45:29.203Z,11.57
2024-03-06T09:47:57.588Z,14.45
2024-03-06T09:50:31.688Z,13.50
2024-03-06T09:53:02.514Z,13.73
2024-03-06T09:55:40.167Z,16.08
2024-03-06T09:58:08.104Z,17.73
2024-03-06T10:00:53.637Z,15.88
2024-03-06T10:03:54.264Z,15.30
2024-03-06T10:06:51.803Z,14.77
2024-03-06T10:09:37.008Z,15.93
2024-03-06T10:12:19.336Z,15.52
2024-03-06T10:15:08.933Z,15.80
2024-03-06T10:17:35.786Z,13.65
2024-03-06T10:20:23.862Z,13.45
2024-03-06T10:22:58.857Z,14.65
2024-03-06T10:26:00.661Z,14.43
2024-03-06T10:29:40.231Z,14.90
2024-03-06T10:32:01.678Z,16.67
2024-03-06T10:35:15.576Z,13.93
2024-03-06T10:37:42.135Z,13.32
2024-03-06T10:40:51.893Z,12.40
2024-03-06T10:44:07.323Z,19.20
2024-03-06T10:46:54.098Z,15.60
2024-03-06T10:50:14.393Z,19.63
2024-03-06T10:52:53.292Z,21.63
2024-03-06T10:55:48.976Z,17.67
2024-03-06T11:05:40.602Z,20.70
2024-03-06T11:08:24.707Z,23.60
2024-03-06T11:10:57.356Z,23.13
2024-03-06T11:14:14.866Z,25.02
2024-03-06T11:16:58.775Z,20.40
2024-03-06T11:19:27.618Z,23.10
2024-03-06T11:22:05.561Z,20.52
2024-03-06T11:24:56.272Z,24.45
2024-03-06T11:28:06.649Z,25.95
2024-03-06T11:30:54.563Z,29.05
2024-03-06T11:50:09.974Z,32.13
2024-03-06T11:53:03.702Z,33.05
2024-03-06T11:55:46.406Z,36.38
2024-03-06T11:58:56.844Z,33.20
2024-03-06T12:04:37.409Z,40.97
2024-03-06T12:07:22.482Z,32.92
2024-03-06T12:09:53.023Z,36.90
2024-03-06T12:13:15.019Z,37.42
2024-03-06T12:16:42.399Z,38.35
2024-03-06T12:19:30.466Z,40.58
2024-03-06T12:21:56.712Z,39.22
2024-03-06T12:24:56.362Z,45.50
2024-03-06T12:27:25.732Z,35.78
2024-03-06T12:30:14.695Z,36.25
2024-03-06T12:33:08.293Z,41.35
2024-03-06T12:35:47.463Z,36.05
2024-03-06T12:38:17.438Z,35.60
2024-03-06T12:41:16.965Z,34.72
2024-03-06T12:44:29.275Z,41.95
2024-03-06T12:47:43.585Z,33.70
2024-03-06T12:50:38.110Z,33.08
2024-03-06T12:56:14.689Z,41.05
2024-03-06T12:59:36.695Z,33.38
2024-03-06T13:02:45.032Z,34.95
2024-03-06T13:05:22.143Z,41.65
2024-03-06T13:11:04.224Z,30.35
2024-03-06T13:13:38.828Z,28.73
2024-03-06T13:16:07.578Z,30.27
2024-03-06T13:18:59.914Z,25.55
2024-03-06T13:21:29.193Z,32.50
2024-03-06T13:24:28.485Z,29.80
2024-03-06T13:27:09.738Z,28.35
2024-03-06T13:29:36.418Z,28.25
2024-03-06T13:32:03.207Z,32.60
2024-03-06T13:34:37.450Z,27.95
2024-03-06T13:40:31.420Z,29.17
2024-03-06T13:59:02.620Z,30.60
2024-03-06T14:01:50.013Z,31.60
2024-03-06T14:04:18.512Z,33.00
2024-03-06T14:06:45.249Z,30.17
2024-03-06T14:09:13.543Z,28.45
2024-03-06T14:11:40.261Z,29.67
2024-03-06T14:14:16.946Z,32.20
2024-03-06T14:17:21.575Z,30.55
2024-03-06T14:19:48.416Z,31.42
2024-03-06T14:22:49.388Z,36.30
2024-03-06T14:35:10.743Z,29.60
2024-03-06T14:35:44.017Z,30.45
2024-03-06T14:44:57.156Z,30.35
2024-03-06T14:47:25.166Z,27.05
2024-03-06T14:50:26.971Z,29.00
2024-03-06T14:53:04.617Z,27.27
2024-03-06T14:55:35.221Z,32.00
2024-03-06T14:58:09.555Z,35.25
2024-03-06T15:00:36.170Z,28.23
2024-03-06T15:03:07.135Z,33.63
2024-03-06T15:05:33.937Z,38.22
2024-03-06T15:08:30.152Z,34.25
2024-03-06T15:11:01.314Z,38.40
2024-03-06T15:13:28.026Z,39.60
2024-03-06T15:16:23.994Z,35.00
2024-03-06T15:21:34.244Z,32.38
2024-03-06T15:24:06.156Z,36.55
2024-03-06T15:26:34.962Z,37.40
2024-03-06T15:29:11.738Z,36.75
2024-03-06T15:31:41.022Z,36.50
2024-03-06T15:34:08.949Z,38.13
2024-03-06T15:36:39.970Z,37.10
2024-03-06T15:39:08.022Z,34.03
2024-03-06T15:43:58.236Z,34.75
2024-03-06T15:44:21.837Z,36.50
2024-03-06T15:46:59.081Z,33.40
2024-03-06T15:49:49.259Z,30.90
2024-03-06T15:52:23.625Z,35.08
2024-03-06T15:54:53.324Z,30.88
2024-03-06T15:57:50.519Z,31.33
2024-03-06T16:00:29.103Z,30.52
2024-03-06T16:02:58.872Z,34.42
2024-03-06T16:05:25.646Z,31.58
2024-03-06T16:08:00.205Z,35.70
2024-03-06T16:10:32.939Z,38.20
2024-03-06T16:12:59.709Z,32.80
2024-03-06T16:15:28.448Z,36.90
2024-03-06T16:17:55.200Z,35.33
2024-03-06T16:20:22.190Z,38.03
2024-03-06T16:22:50.770Z,39.75
2024-03-06T16:25:17.621Z,38.05
2024-03-06T16:27:46.170Z,43.00
2024-03-06T16:30:13.722Z,38.53
2024-03-06T16:32:49.392Z,44.58
2024-03-06T16:38:05.156Z,43.50
2024-03-06T16:38:30.094Z,41.60
2024-03-06T16:40:31.696Z,52.10
2024-03-06T16:42:59.544Z,44.70
2024-03-06T16:45:26.111Z,49.05
2024-03-06T16:47:52.944Z,44.03
2024-03-06T16:50:21.332Z,48.55
2024-03-06T16:52:50.821Z,44.50
2024-03-06T16:55:17.513Z,47.33
2024-03-06T16:57:44.048Z,47.63
2024-03-06T17:00:13.756Z,53.10
2024-03-06T17:02:40.652Z,51.58
2024-03-06T17:05:09.703Z,60.88
2024-03-06T17:07:36.326Z,53.95
2024-03-06T17:10:02.863Z,51.13
2024-03-06T17:12:29.404Z,54.67
2024-03-06T17:14:58.532Z,50.93
2024-03-06T17:17:26.570Z,54.60
2024-03-06T17:19:53.104Z,53.83
2024-03-06T17:22:22.284Z,60.00
2024-03-06T17:24:48.811Z,54.78
2024-03-06T17:27:15.313Z,55.85
2024-03-06T17:29:43.658Z,61.27
2024-03-06T17:32:12.206Z,59.60
2024-03-06T17:34:40.037Z,64.00
2024-03-06T17:37:06.551Z,56.10
2024-03-06T17:39:33.204Z,61.53
2024-03-06T17:42:04.516Z,66.57
2024-03-06T17:44:33.253Z,67.63
2024-03-06T17:47:00.229Z,66.32
2024-03-06T17:49:26.836Z,65.05
2024-03-06T17:51:54.668Z,61.03
2024-03-06T17:54:21.204Z,60.17
2024-03-06T17:56:47.800Z,69.10
2024-03-06T17:59:14.439Z,58.35
2024-03-06T18:01:41.118Z,63.47
2024-03-06T18:04:08.326Z,66.68
2024-03-06T18:06:34.934Z,63.33
2024-03-06T18:09:03.331Z,62.70
2024-03-06T18:11:29.935Z,62.80
2024-03-06T18:13:56.455Z,57.77
2024-03-06T18:16:23.014Z,68.63
2024-03-06T18:18:49.633Z,59.27
2024-03-06T18:21:16.186Z,65.60
2024-03-06T18:23:42.772Z,69.30
2024-03-06T18:26:10.683Z,56.67
2024-03-06T18:28:37.197Z,59.10
2024-03-06T18:31:05.191Z,66.30
2024-03-06T18:33:32.105Z,60.30
2024-03-06T18:35:58.860Z,64.27
2024-03-06T18:38:25.454Z,60.97
2024-03-06T18:40:52.030Z,67.33
2024-03-06T18:43:19.890Z,71.15
2024-03-06T18:45:46.450Z,70.05
2024-03-06T18:48:13.163Z,75.25
2024-03-06T18:50:39.828Z,68.47
2024-03-06T18:53:06.482Z,66.93
2024-03-06T18:55:33.088Z,70.97
2024-03-06T18:57:59.624Z,64.13
2024-03-06T19:00:27.531Z,71.60
2024-03-06T19:02:54.109Z,66.45
2024-03-06T19:05:20.785Z,61.23
2024-03-06T19:07:47.334Z,65.28
2024-03-06T19:10:13.951Z,62.30
2024-03-06T19:12:40.509Z,63.53
2024-03-06T19:15:07.998Z,66.17
2024-03-06T19:20:03.487Z,66.32
2024-03-06T19:22:29.989Z,68.15
2024-03-06T19:24:56.578Z,79.43
2024-03-06T19:27:23.118Z,73.50
2024-03-06T19:29:49.713Z,70.57
2024-03-06T19:32:16.384Z,68.18
2024-03-06T19:34:44.255Z,69.68
2024-03-06T19:37:10.840Z,79.13
2024-03-06T19:39:37.341Z,76.33
2024-03-06T19:42:04.533Z,70.50
2024-03-06T19:44:31.050Z,73.85
2024-03-06T19:46:57.755Z,67.72
2024-03-06T19:49:24.243Z,74.07
2024-03-06T19:51:52.244Z,74.65
2024-03-06T19:54:18.707Z,73.45
2024-03-06T19:56:45.307Z,75.25
2024-03-06T19:59:11.939Z,74.13
2024-03-06T20:01:38.456Z,71.00
2024-03-06T20:04:05.204Z,81.17
2024-03-06T20:06:31.945Z,76.22
2024-03-06T20:09:00.072Z,77.20
2024-03-06T20:11:28.193Z,80.45
2024-03-06T20:13:54.893Z,73.15
2024-03-06T20:16:22.089Z,77.60
2024-03-06T20:18:48.771Z,71.63
2024-03-06T20:21:15.337Z,69.67
2024-03-06T20:23:41.857Z,75.90
2024-03-06T20:26:09.897Z,67.83
2024-03-06T20:28:36.438Z,73.35
2024-03-06T20:31:03.124Z,70.47
2024-03-06T20:33:29.802Z,74.20
2024-03-06T20:35:56.394Z,76.50
2024-03-06T20:38:25.559Z,82.93
2024-03-06T20:40:52.609Z,74.60
2024-03-06T20:43:20.583Z,80.00
2024-03-06T20:45:47.142Z,74.85
2024-03-06T20:48:13.908Z,80.93
2024-03-06T20:50:41.170Z,75.18
2024-03-06T20:53:07.774Z,74.50
2024-03-06T20:55:34.260Z,74.40
2024-03-06T20:58:01.970Z,71.90
2024-03-06T21:00:29.966Z,69.32
2024-03-06T21:02:56.548Z,80.20
2024-03-06T21:05:23.371Z,82.10
2024-03-06T21:07:50.004Z,81.80
2024-03-06T21:10:16.719Z,69.60
2024-03-06T21:12:43.482Z,78.55
2024-03-06T21:15:10.259Z,68.65
2024-03-06T21:17:38.236Z,77.28
2024-03-06T21:20:05.889Z,74.53
2024-03-06T21:22:32.385Z,83.00
2024-03-06T21:24:58.882Z,83.35
2024-03-06T21:27:25.378Z,78.23
2024-03-06T21:29:51.928Z,85.40
2024-03-06T21:32:18.466Z,82.17
2024-03-06T21:34:46.354Z,84.97
2024-03-06T21:37:12.926Z,73.85
2024-03-06T21:39:39.460Z,78.43
2024-03-06T21:42:06.003Z,78.70
2024-03-06T21:44:32.519Z,74.80
2024-03-06T21:46:59.077Z,76.50
2024-03-06T21:49:25.627Z,83.50
2024-03-06T21:51:53.433Z,68.97
2024-03-06T21:54:19.933Z,72.50
2024-03-06T21:56:46.590Z,74.80
2024-03-06T21:59:13.317Z,73.75
2024-03-06T22:01:39.945Z,77.45
2024-03-06T22:04:06.578Z,74.20
2024-03-06T22:06:33.086Z,76.13
2024-03-06T22:09:01.063Z,55.28
2024-03-06T22:11:27.614Z,79.93
2024-03-06T22:13:54.099Z,76.00
2024-03-06T22:16:20.663Z,74.85
2024-03-06T22:18:47.186Z,72.77
2024-03-06T22:21:13.801Z,74.80
2024-03-06T22:23:41.201Z,73.20
2024-03-06T22:28:35.548Z,73.82
2024-03-06T22:31:02.028Z,69.17
2024-03-06T22:33:28.880Z,76.20
2024-03-06T22:35:55.807Z,73.20
2024-03-06T22:38:22.499Z,78.97
2024-03-06T22:40:49.014Z,76.85
2024-03-06T22:43:16.849Z,76.07
2024-03-06T22:45:43.360Z,81.38
2024-03-06T22:48:10.095Z,78.20
2024-03-06T22:50:36.690Z,72.00
2024-03-06T22:53:03.445Z,74.27
2024-03-06T22:55:29.928Z,81.78
2024-03-06T22:57:56.425Z,83.67
2024-03-06T23:00:24.268Z,75.50
2024-03-06T23:02:51.181Z,76.78
2024-03-06T23:05:17.829Z,73.65
2024-03-06T23:07:44.374Z,73.77
2024-03-06T23:10:10.880Z,74.23
2024-03-06T23:12:37.369Z,67.60
2024-03-06T23:15:04.424Z,79.60
2024-03-06T23:17:32.359Z,74.15
2024-03-06T23:19:59.336Z,70.88
2024-03-06T23:22:25.908Z,67.07
2024-03-06T23:24:52.435Z,67.90
2024-03-06T23:27:18.947Z,65.97
2024-03-06T23:29:45.512Z,70.70
2024-03-06T23:32:12.026Z,70.53
2024-03-06T23:34:39.911Z,68.20
2024-03-06T23:37:06.406Z,68.80
2024-03-06T23:39:33.169Z,70.90
2024-03-06T23:41:59.686Z,69.55
2024-03-06T23:44:26.182Z,71.97
2024-03-06T23:46:52.685Z,52.27
2024-03-06T23:49:19.583Z,67.25
2024-03-06T23:51:47.472Z,67.68
2024-03-06T23:54:14.029Z,67.95
2024-03-06T23:56:40.567Z,72.43
2024-03-06T23:59:07.402Z,67.87
